Caracas Simon Bolivar, Venezuela

8:21 PM VET en Septiembre 15, 2014 (GMT -0430)
Simon Bolivar International | Change Station
CLOSE
Current Station
Aeropuerto
Location: Caracas Simon Bolivar,
Altura: 157 ft
Estaciones meteorológicas cercanas

Alt 157 ft 10.60 °N, 66.99 °W | Updated 51 minutes ago

Mostly Cloudy
Muy nublado
81 ° F
Sensación térmica 87 ° F
N
0
Viento Variable Viento desde Norte

Hoy
Alta -- | Baja -- ° F
--% Posibilidad de precipitaciones
Ayer
Alta -- | Baja -- ° F
Precip. -- pul
5:47 AM 5:58 PM
Gibosa menguante, 51% visible
Presión 29.86 pul
Visibilidad 6.2 Millas
Nubes Muy nublado 1600 ft
Índice de calor 87 ° F
Punto de rocío 77 ° F
Humedad 89%
Precipitaciones 0.00 pul
Espesor de la nieve No disponible.
UV 0 de una escala de 12
Polen No disponible.
Calidad del aire No disponible.
Flu Activity No disponible.
METAR SVMI 160000Z 00000KT 9999 BKN016 27/25 Q1011 NOSIG

More Conditions Fewer Conditions

Presión 29.86 pul
Visibilidad 6.2 Millas
Nubes Muy nublado 1600 ft
Índice de calor 87 ° F
Punto de rocío 77 ° F
Humedad 89%
Precipitaciones 0.00 pul
Espesor de la nieve No disponible.
UV 0 de una escala de 12
Polen No disponible.
Calidad del aire No disponible.
Flu Activity No disponible.
METAR SVMI 160000Z 00000KT 9999 BKN016 27/25 Q1011 NOSIG

More Conditions Fewer Conditions

10-Day Weather Forecast

Almanac

Astronomía

Sep. 15, 2014 Salida Puesta
Hora real 5:47 AM VET 5:58 PM VET
Crepúsculo civil 5:26 AM VET 6:19 PM VET
Crepúsculo náutico 5:02 AM VET 6:44 PM VET
Crepúsculo astronómico 4:37 AM VET 7:08 PM VET
Luna Sin salida de luna 11:43 AM VET (9/15)
Horas de luz 12h 53m
Horas de luz
12h 10m
Tomorrow will be 0m 35s shorter.
Gibosa menguante, 51% of the Moon is Illuminated
Hoy
Gibosa menguante
Sep 15
Cuarto menguante
Sep 24
Nueva
Oct 1
Cuarto creciente
Oct 8
Luna llena

Extremos de hoy

Máximos del país Bajas del país

Community

WunderPhotos

Upload Photos

1,753,630 ¡fotos cargadas!

Nearby

Calidad del aire

Not available.

Grosos de nieve

Not available.

Actividad de terremotos

Ciudad Distance Mag. Tiempo y dato
No hay informes recientes de la actividad sísmica.
Magnitud mínima muestra es 2,5.

Temperaturas de aguas costeras

Lugar Temperatura
Sin partes meteorológicos de las estaciones

Estaciones meteorológicas cercanas